Time;durP1;ratioP1;P1;durP2;ratioP2;P2;SDS_P1;SDS_P2;PMS_P1;PMS_P2;Temp;Humidity;BMP_temperature;BMP_pressure;BME280_temperature;BME280_humidity;BME280_pressure;Samples;Min_cycle;Max_cycle;Signal;HPM_P1;HPM_P2
2022/06/15 00:01:12;;;;;;;0.00;0.00;;;14.90;76.50;;;;;;5009515;28;20562;-71
2022/06/15 00:03:38;;;;;;;0.00;0.00;;;14.90;76.60;;;;;;5010271;28;20042;-70
2022/06/15 00:06:09;;;;;;;0.00;0.00;;;14.90;76.50;;;;;;5010352;28;20046;-71
2022/06/15 00:08:35;;;;;;;0.00;0.00;;;14.90;76.80;;;;;;5009239;28;20046;-71
2022/06/15 00:11:06;;;;;;;0.00;0.00;;;14.90;76.90;;;;;;5025172;28;20081;-68
2022/06/15 00:13:32;;;;;;;0.40;0.40;;;14.90;76.90;;;;;;5017442;28;20058;-68
2022/06/15 00:15:57;;;;;;;0.00;0.00;;;14.80;76.90;;;;;;5020937;28;20127;-68
2022/06/15 00:18:23;;;;;;;0.00;0.00;;;14.80;76.90;;;;;;5035632;28;20033;-68
2022/06/15 00:20:48;;;;;;;0.00;0.00;;;14.80;76.90;;;;;;5052444;28;20128;-68
2022/06/15 00:23:14;;;;;;;0.00;0.00;;;14.80;76.80;;;;;;5036458;28;20069;-69
2022/06/15 00:25:39;;;;;;;0.00;0.00;;;14.80;76.90;;;;;;5032734;28;20094;-69
2022/06/15 00:28:05;;;;;;;0.00;0.00;;;14.80;77.10;;;;;;5045612;28;20518;-69
2022/06/15 00:30:30;;;;;;;0.00;0.00;;;14.80;77.10;;;;;;5050800;28;20041;-69
2022/06/15 00:32:56;;;;;;;0.00;0.00;;;14.70;77.30;;;;;;5043781;28;20048;-69
2022/06/15 00:35:22;;;;;;;0.00;0.00;;;14.70;77.30;;;;;;5022953;28;20054;-69
2022/06/15 00:37:47;;;;;;;0.00;0.00;;;14.70;77.20;;;;;;5024094;28;20102;-69
2022/06/15 00:40:13;;;;;;;0.00;0.00;;;14.70;77.20;;;;;;5027388;28;20061;-69
2022/06/15 00:42:38;;;;;;;0.00;0.00;;;14.60;77.20;;;;;;5032954;28;20041;-69
2022/06/15 00:45:04;;;;;;;0.00;0.00;;;14.60;77.30;;;;;;5034437;28;20038;-69
2022/06/15 00:47:37;;;;;;;0.00;0.00;;;14.60;77.20;;;;;;5063023;28;20037;-69
2022/06/15 00:50:16;;;;;;;0.00;0.00;;;14.60;77.30;;;;;;5025500;28;20052;-69
2022/06/15 00:52:52;;;;;;;0.00;0.00;;;14.60;77.60;;;;;;5020597;28;20050;-69
2022/06/15 00:55:32;;;;;;;0.10;0.10;;;14.60;77.50;;;;;;5033132;28;20073;-69
2022/06/15 00:58:01;;;;;;;0.00;0.00;;;14.60;77.40;;;;;;5050618;28;20754;-69
2022/06/15 01:00:27;;;;;;;0.10;0.10;;;14.60;77.40;;;;;;5022378;28;20037;-69
2022/06/15 01:02:53;;;;;;;0.00;0.00;;;14.50;77.40;;;;;;5028637;28;20085;-69
2022/06/15 01:05:25;;;;;;;0.00;0.00;;;14.50;77.50;;;;;;5038198;28;20045;-69
2022/06/15 01:08:14;;;;;;;0.00;0.00;;;14.50;77.60;;;;;;5028305;28;20163;-69
2022/06/15 01:11:02;;;;;;;0.00;0.00;;;14.50;77.40;;;;;;5037564;28;20063;-69
2022/06/15 01:13:52;;;;;;;0.00;0.00;;;14.50;77.50;;;;;;5029009;28;20053;-70
2022/06/15 01:16:39;;;;;;;0.00;0.00;;;14.50;77.60;;;;;;5043556;28;20554;-70
2022/06/15 01:19:29;;;;;;;0.00;0.00;;;14.40;77.50;;;;;;5029547;28;20072;-70
2022/06/15 01:22:26;;;;;;;0.00;0.00;;;14.40;77.50;;;;;;5027518;28;20483;-70
2022/06/15 01:25:29;;;;;;;0.00;0.00;;;14.40;77.70;;;;;;5023574;28;20049;-70
2022/06/15 01:28:19;;;;;;;0.00;0.00;;;14.40;77.80;;;;;;5032062;28;20076;-70
2022/06/15 01:31:30;;;;;;;0.00;0.00;;;14.40;78.00;;;;;;5025338;28;20578;-70
2022/06/15 01:34:16;;;;;;;0.00;0.00;;;14.30;78.20;;;;;;5022117;28;20052;-70
2022/06/15 01:37:06;;;;;;;0.00;0.00;;;14.40;78.20;;;;;;5025954;28;20053;-70
2022/06/15 01:39:47;;;;;;;0.00;0.00;;;14.40;78.30;;;;;;5019323;28;20044;-70
2022/06/15 01:42:18;;;;;;;0.00;0.00;;;14.40;78.30;;;;;;5023850;28;20053;-70
2022/06/15 01:44:53;;;;;;;0.00;0.00;;;14.40;78.60;;;;;;5027904;28;20053;-70
2022/06/15 01:47:22;;;;;;;0.10;0.10;;;14.30;78.50;;;;;;5029821;28;20061;-70
2022/06/15 01:50:00;;;;;;;0.00;0.00;;;14.30;78.40;;;;;;5030904;28;20088;-70
2022/06/15 01:52:31;;;;;;;0.00;0.00;;;14.30;78.40;;;;;;5017972;28;20049;-70
2022/06/15 01:55:03;;;;;;;0.00;0.00;;;14.20;78.40;;;;;;5036327;28;20045;-70
2022/06/15 01:57:30;;;;;;;0.00;0.00;;;14.30;78.40;;;;;;5038059;28;20037;-70
2022/06/15 02:00:04;;;;;;;0.03;0.03;;;14.30;78.50;;;;;;5044418;28;20041;-70
2022/06/15 02:02:38;;;;;;;0.00;0.00;;;14.20;78.40;;;;;;5040021;28;20497;-70
2022/06/15 02:05:14;;;;;;;0.00;0.00;;;14.20;78.60;;;;;;5022675;28;20212;-69
2022/06/15 02:08:02;;;;;;;0.00;0.00;;;14.10;78.60;;;;;;5036622;28;20508;-70
2022/06/15 02:10:33;;;;;;;0.00;0.00;;;14.10;78.60;;;;;;5039566;28;20510;-70
2022/06/15 02:13:05;;;;;;;0.05;0.05;;;14.10;78.60;;;;;;5017514;28;20060;-70
2022/06/15 02:15:33;;;;;;;0.00;0.00;;;14.10;78.60;;;;;;5024081;28;20061;-70
2022/06/15 02:18:02;;;;;;;0.00;0.00;;;14.10;78.70;;;;;;5029159;28;20046;-70
2022/06/15 02:20:31;;;;;;;0.00;0.00;;;14.10;78.90;;;;;;5038813;28;20417;-70
2022/06/15 02:23:02;;;;;;;0.00;0.00;;;14.10;78.90;;;;;;5037797;28;20048;-70
2022/06/15 02:25:32;;;;;;;0.10;0.10;;;14.10;79.00;;;;;;5031521;28;20089;-70
2022/06/15 02:28:00;;;;;;;0.00;0.00;;;14.10;79.00;;;;;;5038376;28;20037;-70
2022/06/15 02:30:28;;;;;;;0.10;0.10;;;14.10;78.90;;;;;;5030613;28;20045;-70
2022/06/15 02:32:53;;;;;;;0.00;0.00;;;14.10;78.90;;;;;;5029723;28;20537;-70
2022/06/15 02:35:20;;;;;;;0.00;0.00;;;14.10;79.10;;;;;;5028238;28;20061;-70
2022/06/15 02:37:48;;;;;;;0.00;0.00;;;14.10;79.10;;;;;;5030387;28;20095;-70
2022/06/15 02:40:17;;;;;;;0.00;0.00;;;14.10;79.20;;;;;;5034157;28;20125;-70
2022/06/15 02:42:46;;;;;;;0.00;0.00;;;14.10;79.10;;;;;;5036948;28;20485;-70
2022/06/15 02:45:17;;;;;;;0.10;0.10;;;14.10;79.30;;;;;;5028238;28;20050;-70
2022/06/15 02:47:43;;;;;;;0.00;0.00;;;14.10;79.60;;;;;;5040184;28;20076;-70
2022/06/15 02:50:12;;;;;;;0.00;0.00;;;14.10;79.30;;;;;;5029507;28;20049;-70
2022/06/15 02:52:42;;;;;;;0.00;0.00;;;14.10;79.40;;;;;;5031334;28;20089;-70
2022/06/15 02:55:10;;;;;;;1.55;0.55;;;14.10;79.40;;;;;;5030937;28;20044;-70
2022/06/15 02:57:48;;;;;;;0.00;0.00;;;14.10;79.50;;;;;;5021884;28;20045;-70
2022/06/15 03:00:15;;;;;;;0.00;0.00;;;14.10;79.30;;;;;;5030131;28;20076;-70
2022/06/15 03:02:41;;;;;;;0.00;0.00;;;14.10;79.30;;;;;;5033913;28;20037;-70
2022/06/15 03:05:07;;;;;;;0.00;0.00;;;14.00;79.50;;;;;;5040777;28;20050;-70
2022/06/15 03:07:33;;;;;;;0.00;0.00;;;14.10;79.50;;;;;;5037754;28;20131;-70
2022/06/15 03:09:58;;;;;;;0.10;0.10;;;14.00;79.70;;;;;;5023607;28;20128;-70
2022/06/15 03:12:24;;;;;;;0.00;0.00;;;14.00;79.80;;;;;;5009867;28;20052;-70
2022/06/15 03:14:49;;;;;;;0.00;0.00;;;14.00;79.90;;;;;;5012776;28;20142;-70
2022/06/15 03:17:15;;;;;;;0.00;0.00;;;14.00;79.80;;;;;;5025872;28;20045;-70
2022/06/15 03:19:41;;;;;;;0.00;0.00;;;14.00;80.00;;;;;;5026089;28;20041;-70
2022/06/15 03:22:06;;;;;;;0.20;0.20;;;14.00;79.90;;;;;;5015887;28;20045;-70
2022/06/15 03:24:32;;;;;;;0.00;0.00;;;13.90;80.20;;;;;;5029385;28;20092;-70
2022/06/15 03:26:58;;;;;;;0.00;0.00;;;13.90;80.20;;;;;;5031957;28;20037;-70
2022/06/15 03:29:24;;;;;;;0.00;0.00;;;13.90;80.30;;;;;;5031843;28;20049;-70
2022/06/15 03:31:49;;;;;;;0.00;0.00;;;13.90;80.10;;;;;;5013902;28;20111;-70
2022/06/15 03:34:15;;;;;;;0.00;0.00;;;13.90;80.00;;;;;;5027907;28;20487;-70
2022/06/15 03:36:41;;;;;;;0.10;0.10;;;13.90;80.00;;;;;;5020224;28;20499;-70
2022/06/15 03:39:06;;;;;;;0.00;0.00;;;13.90;80.00;;;;;;5038681;28;20830;-68
2022/06/15 03:41:32;;;;;;;0.00;0.00;;;13.90;80.10;;;;;;5009449;28;20044;-71
2022/06/15 03:43:57;;;;;;;0.00;0.00;;;14.00;80.20;;;;;;5009628;28;20099;-70
2022/06/15 03:46:23;;;;;;;0.00;0.00;;;14.00;80.40;;;;;;5022575;28;20075;-69
2022/06/15 03:48:49;;;;;;;0.10;0.10;;;14.00;80.30;;;;;;5057226;28;20171;-69
2022/06/15 03:51:15;;;;;;;0.00;0.00;;;14.00;80.40;;;;;;5019542;28;20034;-70
2022/06/15 03:53:40;;;;;;;0.00;0.00;;;14.00;80.70;;;;;;5009056;28;20041;-69
2022/06/15 03:56:06;;;;;;;0.00;0.00;;;14.10;80.90;;;;;;5024864;28;20060;-70
2022/06/15 03:58:32;;;;;;;0.00;0.00;;;14.10;80.60;;;;;;5028446;28;20037;-70
2022/06/15 04:00:58;;;;;;;0.03;0.03;;;14.10;80.10;;;;;;5026936;28;20442;-69
2022/06/15 04:03:24;;;;;;;0.00;0.00;;;14.00;79.90;;;;;;5018218;28;20091;-69
2022/06/15 04:05:55;;;;;;;0.00;0.00;;;13.90;79.80;;;;;;5026819;28;20478;-69
2022/06/15 04:08:42;;;;;;;;;;;13.80;79.90;;;;;;5019275;28;20569;-69
2022/06/15 04:13:57;;;;;;;0.00;0.00;;;13.70;79.50;;;;;;5009848;28;20136;-69
2022/06/15 04:16:23;;;;;;;0.20;0.20;;;13.60;79.60;;;;;;5020235;28;20877;-69
2022/06/15 04:18:48;;;;;;;0.00;0.00;;;13.50;79.30;;;;;;5028193;28;20072;-69
2022/06/15 04:21:14;;;;;;;0.10;0.10;;;13.40;79.30;;;;;;5028654;28;20045;-69
2022/06/15 04:23:40;;;;;;;1.45;0.90;;;13.40;79.70;;;;;;5010659;28;20107;-69
2022/06/15 04:26:05;;;;;;;0.20;0.20;;;13.30;79.60;;;;;;5009561;28;20840;-69
2022/06/15 04:28:33;;;;;;;0.90;0.45;;;13.20;79.50;;;;;;5016105;28;20041;-69
2022/06/15 04:30:59;;;;;;;0.10;0.10;;;13.20;80.00;;;;;;5008391;28;20045;-69
2022/06/15 04:33:28;;;;;;;0.00;0.00;;;13.10;79.90;;;;;;5027761;28;20133;-69
2022/06/15 04:35:54;;;;;;;0.00;0.00;;;13.10;80.00;;;;;;5026668;28;20808;-69
2022/06/15 04:38:20;;;;;;;0.00;0.00;;;13.10;79.80;;;;;;5025404;28;20053;-69
2022/06/15 04:40:46;;;;;;;0.00;0.00;;;13.10;80.10;;;;;;5028628;28;20048;-69
2022/06/15 04:43:12;;;;;;;0.00;0.00;;;13.10;80.40;;;;;;5023788;28;20395;-69
2022/06/15 04:45:37;;;;;;;0.00;0.00;;;13.00;80.20;;;;;;5027912;28;20045;-69
2022/06/15 04:48:04;;;;;;;0.10;0.10;;;13.10;80.20;;;;;;5009718;28;20502;-69
2022/06/15 04:50:30;;;;;;;0.45;0.45;;;13.00;80.40;;;;;;5023127;28;20046;-70
2022/06/15 04:52:56;;;;;;;0.05;0.05;;;13.00;80.20;;;;;;5027954;28;20136;-69
2022/06/15 04:55:23;;;;;;;0.38;0.20;;;13.00;80.50;;;;;;5028526;28;20168;-70
2022/06/15 04:57:54;;;;;;;0.10;0.10;;;13.00;80.40;;;;;;5025952;28;20450;-70
2022/06/15 05:00:22;;;;;;;0.13;0.13;;;13.00;80.60;;;;;;5025932;28;20051;-70
2022/06/15 05:02:48;;;;;;;0.10;0.10;;;13.00;80.90;;;;;;5008299;28;20054;-70
2022/06/15 05:05:13;;;;;;;0.00;0.00;;;13.00;81.00;;;;;;5022785;28;20403;-69
2022/06/15 05:07:40;;;;;;;0.00;0.00;;;13.10;81.10;;;;;;5026771;28;20058;-70
2022/06/15 05:10:09;;;;;;;0.00;0.00;;;13.10;81.40;;;;;;5028862;28;20045;-69
2022/06/15 05:12:35;;;;;;;0.00;0.00;;;13.20;81.70;;;;;;5031691;28;20057;-68
2022/06/15 05:15:00;;;;;;;0.10;0.10;;;13.30;81.90;;;;;;5030764;28;20053;-68
2022/06/15 05:17:26;;;;;;;0.00;0.00;;;13.40;81.30;;;;;;5020166;28;20061;-68
2022/06/15 05:19:52;;;;;;;0.00;0.00;;;13.50;81.10;;;;;;5011650;28;20153;-68
2022/06/15 05:22:17;;;;;;;0.00;0.00;;;13.50;81.20;;;;;;5011272;28;20495;-68
2022/06/15 05:24:43;;;;;;;0.00;0.00;;;13.60;81.10;;;;;;5011771;28;20033;-68
2022/06/15 05:27:09;;;;;;;0.08;0.08;;;13.60;81.20;;;;;;5021360;28;20442;-68
2022/06/15 05:29:37;;;;;;;0.15;0.15;;;13.70;81.40;;;;;;5011512;28;20049;-68
2022/06/15 05:32:07;;;;;;;0.00;0.00;;;13.80;80.80;;;;;;5011467;28;20042;-68
2022/06/15 05:34:34;;;;;;;0.00;0.00;;;13.80;80.80;;;;;;5010582;28;20445;-68
2022/06/15 05:37:00;;;;;;;0.00;0.00;;;13.90;80.80;;;;;;5015832;28;20125;-68
2022/06/15 05:39:26;;;;;;;0.00;0.00;;;13.90;80.80;;;;;;5017830;28;20037;-68
2022/06/15 05:41:51;;;;;;;0.68;0.38;;;14.10;80.90;;;;;;5030786;28;20461;-68
2022/06/15 05:46:44;;;;;;;0.00;0.00;;;14.20;81.00;;;;;;5030465;28;20046;-68
2022/06/15 05:49:10;;;;;;;0.00;0.00;;;14.30;80.90;;;;;;5025593;28;20045;-68
2022/06/15 05:51:36;;;;;;;0.10;0.10;;;14.30;80.90;;;;;;5010796;28;20089;-68
2022/06/15 05:54:02;;;;;;;0.25;0.25;;;14.40;81.00;;;;;;5011331;28;20074;-68
2022/06/15 05:56:28;;;;;;;0.00;0.00;;;14.50;81.00;;;;;;5011097;28;20052;-68
2022/06/15 05:58:54;;;;;;;0.10;0.10;;;14.50;81.10;;;;;;5018216;28;20545;-70
2022/06/15 06:01:26;;;;;;;0.00;0.00;;;14.60;81.00;;;;;;5030509;28;20057;-68
2022/06/15 06:03:52;;;;;;;0.00;0.00;;;14.60;80.90;;;;;;5030975;28;20052;-71
2022/06/15 06:06:18;;;;;;;0.00;0.00;;;14.80;81.00;;;;;;5028047;28;20054;-71
2022/06/15 06:08:43;;;;;;;0.20;0.20;;;14.80;80.80;;;;;;5029905;28;20175;-69
2022/06/15 06:11:09;;;;;;;0.00;0.00;;;14.90;80.60;;;;;;5029956;28;20414;-69
2022/06/15 06:13:35;;;;;;;0.00;0.00;;;15.00;80.60;;;;;;5028887;28;20085;-69
2022/06/15 06:16:00;;;;;;;0.00;0.00;;;15.10;80.60;;;;;;5029140;28;20056;-69
2022/06/15 06:18:26;;;;;;;0.00;0.00;;;15.20;80.30;;;;;;5027940;28;20121;-69
2022/06/15 06:20:53;;;;;;;0.00;0.00;;;15.50;80.60;;;;;;5030700;28;20038;-69
2022/06/15 06:23:19;;;;;;;0.00;0.00;;;15.60;80.30;;;;;;5028764;28;20044;-69
2022/06/15 06:25:50;;;;;;;0.00;0.00;;;15.70;79.60;;;;;;5029219;28;20045;-69
2022/06/15 06:28:38;;;;;;;0.00;0.00;;;15.70;79.40;;;;;;5021060;28;20050;-69
2022/06/15 06:31:05;;;;;;;0.10;0.10;;;15.80;79.40;;;;;;5010599;28;20084;-69
2022/06/15 06:33:33;;;;;;;0.00;0.00;;;15.90;79.40;;;;;;5021946;28;20038;-69
2022/06/15 06:36:02;;;;;;;1.15;0.85;;;15.90;79.30;;;;;;5029966;28;20041;-69
2022/06/15 06:38:27;;;;;;;0.00;0.00;;;16.00;79.30;;;;;;5030216;28;20079;-69
2022/06/15 06:40:54;;;;;;;0.00;0.00;;;16.10;79.10;;;;;;5028760;28;20070;-68
2022/06/15 06:43:21;;;;;;;0.00;0.00;;;16.30;78.60;;;;;;5024316;28;20763;-68
2022/06/15 06:45:46;;;;;;;0.00;0.00;;;16.50;77.90;;;;;;5015123;28;20053;-67
2022/06/15 06:48:12;;;;;;;0.00;0.00;;;16.50;77.60;;;;;;5022876;28;20041;-67
2022/06/15 06:50:40;;;;;;;0.00;0.00;;;16.60;77.30;;;;;;5029684;28;20041;-68
2022/06/15 06:53:10;;;;;;;0.00;0.00;;;16.70;76.90;;;;;;5022094;28;20053;-67
2022/06/15 06:55:36;;;;;;;0.00;0.00;;;16.80;76.80;;;;;;5023010;28;20107;-68
2022/06/15 06:58:02;;;;;;;0.00;0.00;;;16.80;76.40;;;;;;5028714;28;20439;-70
2022/06/15 07:00:31;;;;;;;0.10;0.10;;;16.90;75.90;;;;;;5040243;28;20075;-70
2022/06/15 07:02:59;;;;;;;0.00;0.00;;;17.00;75.50;;;;;;5024677;28;20088;-69
2022/06/15 07:05:25;;;;;;;0.00;0.00;;;17.10;75.20;;;;;;5014458;28;20034;-69
2022/06/15 07:07:50;;;;;;;0.00;0.00;;;17.10;74.90;;;;;;5042525;28;20047;-69
2022/06/15 07:10:16;;;;;;;0.00;0.00;;;17.20;73.10;;;;;;5014603;28;20072;-70
2022/06/15 07:12:42;;;;;;;0.00;0.00;;;17.30;73.40;;;;;;5028381;28;20053;-70
2022/06/15 07:15:10;;;;;;;0.00;0.00;;;17.40;73.10;;;;;;5047032;28;20403;-70
2022/06/15 07:17:36;;;;;;;0.00;0.00;;;17.50;73.10;;;;;;5032364;28;20959;-70
2022/06/15 07:20:03;;;;;;;0.00;0.00;;;17.50;73.10;;;;;;5015073;28;20124;-70
2022/06/15 07:22:29;;;;;;;0.00;0.00;;;17.60;72.70;;;;;;5022975;28;20083;-70
2022/06/15 07:24:55;;;;;;;0.00;0.00;;;17.60;73.00;;;;;;5028661;28;20100;-70
2022/06/15 07:27:22;;;;;;;0.00;0.00;;;17.70;72.60;;;;;;5019319;28;20541;-70
2022/06/15 07:29:47;;;;;;;0.00;0.00;;;17.70;72.30;;;;;;5010664;28;20133;-70
2022/06/15 07:32:15;;;;;;;0.00;0.00;;;17.70;71.80;;;;;;5010777;28;20125;-70
2022/06/15 07:34:42;;;;;;;0.00;0.00;;;17.70;71.80;;;;;;5026258;28;20049;-70
2022/06/15 07:37:10;;;;;;;0.00;0.00;;;17.80;71.80;;;;;;5046223;28;20069;-70
2022/06/15 07:39:37;;;;;;;0.00;0.00;;;17.80;71.80;;;;;;5017390;28;20046;-69
2022/06/15 07:42:06;;;;;;;0.00;0.00;;;17.90;71.00;;;;;;5029167;28;20143;-69
2022/06/15 07:44:34;;;;;;;0.03;0.03;;;17.90;71.50;;;;;;5015453;28;20495;-70
2022/06/15 07:49:55;;;;;;;0.00;0.00;;;18.00;72.00;;;;;;5025407;28;20049;-69
2022/06/15 07:52:22;;;;;;;0.13;0.13;;;18.00;70.90;;;;;;5030256;28;20109;-70
2022/06/15 07:54:49;;;;;;;0.00;0.00;;;17.90;70.30;;;;;;5021344;28;21159;-68
2022/06/15 07:57:15;;;;;;;0.00;0.00;;;18.00;70.50;;;;;;5020791;28;20038;-70
2022/06/15 07:59:40;;;;;;;0.00;0.00;;;18.10;70.50;;;;;;5017354;28;20150;-69
2022/06/15 08:02:07;;;;;;;0.00;0.00;;;18.00;70.00;;;;;;5026065;28;20517;-69
2022/06/15 08:04:33;;;;;;;0.00;0.00;;;18.00;69.70;;;;;;5025342;28;20045;-70
2022/06/15 08:06:58;;;;;;;0.00;0.00;;;18.00;69.20;;;;;;5024855;28;20045;-70
2022/06/15 08:09:24;;;;;;;0.00;0.00;;;18.00;69.50;;;;;;5008897;28;20526;-71
2022/06/15 08:14:37;;;;;;;0.17;0.17;;;18.00;68.70;;;;;;5028585;28;20115;-69
2022/06/15 08:17:05;;;;;;;4.28;3.35;;;18.00;69.50;;;;;;5027408;28;20056;-68
2022/06/15 08:19:34;;;;;;;0.30;0.30;;;18.00;69.10;;;;;;5037972;28;20359;-67
2022/06/15 08:21:59;;;;;;;0.10;0.10;;;18.00;68.90;;;;;;5027893;28;20045;-67
2022/06/15 08:24:25;;;;;;;0.00;0.00;;;18.10;69.50;;;;;;5028200;28;20042;-67
2022/06/15 08:26:51;;;;;;;0.00;0.00;;;18.10;69.40;;;;;;5015803;28;20686;-67
2022/06/15 08:29:17;;;;;;;8.18;0.50;;;18.10;69.70;;;;;;5025863;28;20182;-67
2022/06/15 08:31:43;;;;;;;0.00;0.00;;;18.10;69.50;;;;;;5025491;28;20057;-68
2022/06/15 08:34:09;;;;;;;0.00;0.00;;;18.10;69.20;;;;;;5025312;28;20125;-68
2022/06/15 08:36:35;;;;;;;0.10;0.10;;;18.10;67.90;;;;;;5025510;28;20158;-68
2022/06/15 08:39:01;;;;;;;0.10;0.10;;;18.10;67.20;;;;;;5026320;28;20049;-68
2022/06/15 08:41:35;;;;;;;0.20;0.20;;;18.20;66.90;;;;;;5031163;28;20041;-68
2022/06/15 08:44:26;;;;;;;0.00;0.00;;;18.20;67.70;;;;;;5027988;28;20052;-68
2022/06/15 08:47:02;;;;;;;0.00;0.00;;;18.30;67.90;;;;;;5026083;28;20042;-68
2022/06/15 08:49:36;;;;;;;0.00;0.00;;;18.40;67.80;;;;;;5028495;28;20131;-68
2022/06/15 08:52:15;;;;;;;0.10;0.10;;;18.50;67.10;;;;;;5028985;28;20042;-68
2022/06/15 08:54:51;;;;;;;0.10;0.10;;;18.50;65.80;;;;;;5029880;28;20049;-68
2022/06/15 08:57:26;;;;;;;0.00;0.00;;;18.60;65.80;;;;;;5027895;28;20046;-68
2022/06/15 09:00:04;;;;;;;0.00;0.00;;;18.60;66.20;;;;;;5031380;28;20046;-68
2022/06/15 09:02:35;;;;;;;0.00;0.00;;;18.60;65.90;;;;;;5032059;28;20029;-68
2022/06/15 09:05:12;;;;;;;0.00;0.00;;;18.70;66.70;;;;;;5047483;28;20565;-68
2022/06/15 09:07:41;;;;;;;0.00;0.00;;;18.70;65.80;;;;;;5049878;28;20044;-71
2022/06/15 09:10:28;;;;;;;0.00;0.00;;;18.80;65.60;;;;;;5043922;28;20132;-68
2022/06/15 09:13:06;;;;;;;0.00;0.00;;;18.90;65.60;;;;;;5047880;28;20059;-73
2022/06/15 09:15:53;;;;;;;0.00;0.00;;;19.00;64.30;;;;;;5014135;28;20058;-77
2022/06/15 09:18:28;;;;;;;0.00;0.00;;;19.20;64.40;;;;;;5028952;28;20061;-71
2022/06/15 09:21:07;;;;;;;0.00;0.00;;;19.20;63.60;;;;;;5026886;28;20052;-69
2022/06/15 09:23:40;;;;;;;0.00;0.00;;;19.30;63.00;;;;;;5026826;28;20518;-71
2022/06/15 09:26:18;;;;;;;0.00;0.00;;;19.40;64.10;;;;;;5019938;28;20045;-71
2022/06/15 09:28:55;;;;;;;0.00;0.00;;;19.50;63.20;;;;;;5034305;28;20510;-73
2022/06/15 09:31:30;;;;;;;0.00;0.00;;;19.40;63.20;;;;;;5050896;28;20037;-73
2022/06/15 09:34:00;;;;;;;0.00;0.00;;;19.30;63.60;;;;;;5051439;28;20055;-73
2022/06/15 09:36:33;;;;;;;0.00;0.00;;;19.30;62.80;;;;;;5049906;28;20048;-72
2022/06/15 09:38:59;;;;;;;0.00;0.00;;;19.30;62.00;;;;;;5031471;28;20045;-72
2022/06/15 09:41:29;;;;;;;0.00;0.00;;;19.30;63.10;;;;;;5017375;28;20049;-69
2022/06/15 09:44:00;;;;;;;0.00;0.00;;;19.40;62.30;;;;;;5011924;28;20147;-72
2022/06/15 09:46:50;;;;;;;0.00;0.00;;;19.30;61.90;;;;;;5014246;28;20101;-73
2022/06/15 09:49:52;;;;;;;0.13;0.13;;;19.30;62.10;;;;;;5026192;28;20526;-69
2022/06/15 09:52:30;;;;;;;0.00;0.00;;;19.50;63.50;;;;;;5023671;28;20053;-69
2022/06/15 09:55:01;;;;;;;2.90;1.02;;;19.60;63.50;;;;;;5030793;28;20073;-69
2022/06/15 09:57:27;;;;;;;0.00;0.00;;;19.80;62.80;;;;;;5038600;28;20049;-69
2022/06/15 09:59:52;;;;;;;0.00;0.00;;;19.90;60.90;;;;;;5048939;28;20043;-69
2022/06/15 10:02:31;;;;;;;0.00;0.00;;;20.00;60.60;;;;;;5030750;28;20037;-67
2022/06/15 10:05:00;;;;;;;0.00;0.00;;;20.10;60.80;;;;;;5030842;28;20045;-68
2022/06/15 10:07:34;;;;;;;0.00;0.00;;;20.20;60.90;;;;;;5030035;28;20041;-69
2022/06/15 10:10:17;;;;;;;0.00;0.00;;;20.30;61.20;;;;;;5034322;28;20071;-68
2022/06/15 10:12:56;;;;;;;0.00;0.00;;;20.50;60.20;;;;;;5022607;28;20457;-68
2022/06/15 10:15:26;;;;;;;0.00;0.00;;;20.60;60.20;;;;;;5030567;28;20053;-68
2022/06/15 10:17:56;;;;;;;0.00;0.00;;;20.70;60.60;;;;;;5029591;28;20050;-68
2022/06/15 10:20:31;;;;;;;0.00;0.00;;;20.60;59.90;;;;;;5031680;28;20042;-68
2022/06/15 10:22:59;;;;;;;0.38;0.32;;;20.60;58.30;;;;;;5030159;28;20033;-69
2022/06/15 10:25:29;;;;;;;0.00;0.00;;;20.60;58.80;;;;;;5029961;28;20037;-69
2022/06/15 10:28:20;;;;;;;0.00;0.00;;;20.60;58.20;;;;;;5030675;28;20045;-68
2022/06/15 10:30:55;;;;;;;0.00;0.00;;;20.60;57.30;;;;;;5039538;28;20138;-70
2022/06/15 10:33:21;;;;;;;0.00;0.00;;;20.60;58.10;;;;;;5050547;28;20052;-68
2022/06/15 10:35:56;;;;;;;0.00;0.00;;;20.60;58.80;;;;;;5048758;28;20041;-68
2022/06/15 10:38:23;;;;;;;0.00;0.00;;;20.60;58.40;;;;;;5037157;28;20045;-68
2022/06/15 10:40:55;;;;;;;0.00;0.00;;;20.50;57.30;;;;;;5038614;28;20537;-71
2022/06/15 10:43:32;;;;;;;0.00;0.00;;;20.60;57.80;;;;;;5031749;28;20049;-68
2022/06/15 10:46:05;;;;;;;0.00;0.00;;;20.50;58.80;;;;;;5047525;28;20086;-68
2022/06/15 10:48:50;;;;;;;0.00;0.00;;;20.60;57.90;;;;;;5042044;28;20067;-68
2022/06/15 10:51:30;;;;;;;0.10;0.10;;;20.70;57.70;;;;;;5034865;28;20045;-68
2022/06/15 10:54:19;;;;;;;0.00;0.00;;;20.90;56.40;;;;;;5022688;28;20766;-68
2022/06/15 11:02:18;;;;;;;0.00;0.00;;;21.40;56.70;;;;;;5035105;28;20048;-69
2022/06/15 11:04:44;;;;;;;0.00;0.00;;;21.40;55.00;;;;;;5036830;28;20041;-69
2022/06/15 11:07:21;;;;;;;0.00;0.00;;;21.50;56.80;;;;;;5031184;28;20064;-68
2022/06/15 11:09:56;;;;;;;0.17;0.17;;;21.50;53.20;;;;;;5031248;28;20044;-67
2022/06/15 11:12:36;;;;;;;0.00;0.00;;;21.50;55.70;;;;;;5027513;28;20061;-67
2022/06/15 11:15:06;;;;;;;0.43;0.43;;;21.60;56.70;;;;;;5024083;28;20036;-67
2022/06/15 11:20:32;;;;;;;0.68;0.30;;;21.60;56.80;;;;;;5027370;28;20049;-68
2022/06/15 11:23:07;;;;;;;0.00;0.00;;;21.70;56.60;;;;;;5029095;28;20405;-68
2022/06/15 11:25:41;;;;;;;0.00;0.00;;;21.70;56.70;;;;;;5028754;28;20569;-68
2022/06/15 11:28:13;;;;;;;0.35;0.35;;;21.70;56.20;;;;;;5035429;28;20413;-68
2022/06/15 11:30:46;;;;;;;0.00;0.00;;;21.70;56.20;;;;;;5033317;28;20103;-67
2022/06/15 11:33:20;;;;;;;0.00;0.00;;;21.70;56.60;;;;;;5028779;28;20085;-67
2022/06/15 11:36:16;;;;;;;0.00;0.00;;;21.80;56.80;;;;;;5015090;28;20044;-68
2022/06/15 11:38:53;;;;;;;0.10;0.10;;;21.70;56.80;;;;;;5030057;28;20052;-68
2022/06/15 11:41:32;;;;;;;0.00;0.00;;;21.50;56.70;;;;;;5025010;28;20092;-68
2022/06/15 11:44:01;;;;;;;0.10;0.10;;;21.30;56.80;;;;;;5025099;28;20049;-68
2022/06/15 11:47:08;;;;;;;0.00;0.00;;;21.10;56.90;;;;;;5033165;28;20041;-68
2022/06/15 11:49:52;;;;;;;0.00;0.00;;;21.00;58.10;;;;;;4996891;28;20050;-68
2022/06/15 11:52:56;;;;;;;0.00;0.00;;;21.10;58.20;;;;;;5033584;28;20054;-68
2022/06/15 11:55:39;;;;;;;0.03;0.03;;;21.20;56.90;;;;;;5022496;28;20069;-69
2022/06/15 11:58:31;;;;;;;0.00;0.00;;;21.40;57.60;;;;;;5026847;28;20046;-68
2022/06/15 12:01:21;;;;;;;0.00;0.00;;;21.50;57.50;;;;;;5037044;28;20580;-68
2022/06/15 12:04:02;;;;;;;15.63;1.02;;;21.70;56.80;;;;;;5031687;28;20044;-68
2022/06/15 12:06:37;;;;;;;0.00;0.00;;;21.90;57.10;;;;;;5035362;28;20063;-68
2022/06/15 12:09:35;;;;;;;0.00;0.00;;;22.10;55.50;;;;;;5032271;28;20441;-68
2022/06/15 12:15:24;;;;;;;0.00;0.00;;;22.30;53.90;;;;;;5022410;28;20052;-68
2022/06/15 12:18:26;;;;;;;0.00;0.00;;;22.40;55.60;;;;;;5013356;28;20120;-68
2022/06/15 12:21:04;;;;;;;0.00;0.00;;;22.50;55.60;;;;;;5013217;28;20060;-68
2022/06/15 12:23:59;;;;;;;0.00;0.00;;;22.70;54.10;;;;;;5025277;28;20049;-68
2022/06/15 12:26:50;;;;;;;0.00;0.00;;;22.90;53.10;;;;;;5028128;28;20060;-68
2022/06/15 12:29:40;;;;;;;0.00;0.00;;;23.00;52.80;;;;;;5031284;28;20091;-68
2022/06/15 12:32:38;;;;;;;5.93;0.55;;;22.60;53.80;;;;;;5032573;28;20049;-68
2022/06/15 12:35:22;;;;;;;0.00;0.00;;;22.20;53.60;;;;;;5020181;28;20049;-68
2022/06/15 12:37:57;;;;;;;0.00;0.00;;;21.90;54.00;;;;;;5014522;28;20076;-68
2022/06/15 12:40:30;;;;;;;0.22;0.22;;;21.60;54.00;;;;;;5031482;28;20046;-68
2022/06/15 12:43:03;;;;;;;0.00;0.00;;;21.40;54.40;;;;;;5013245;28;20050;-68
2022/06/15 12:45:35;;;;;;;0.00;0.00;;;21.30;55.10;;;;;;5027203;28;20052;-68
2022/06/15 12:48:05;;;;;;;0.00;0.00;;;21.20;54.80;;;;;;5030615;28;20056;-71
2022/06/15 12:50:42;;;;;;;0.00;0.00;;;21.10;54.90;;;;;;5031723;28;20049;-69
2022/06/15 12:53:26;;;;;;;0.00;0.00;;;21.20;55.40;;;;;;5031185;28;20156;-69
2022/06/15 12:56:12;;;;;;;0.00;0.00;;;21.40;55.70;;;;;;5031179;28;20041;-70
2022/06/15 12:58:56;;;;;;;0.00;0.00;;;21.60;55.90;;;;;;5030200;28;20088;-70
2022/06/15 13:01:31;;;;;;;0.00;0.00;;;21.90;54.50;;;;;;5028412;28;20136;-69
2022/06/15 13:04:03;;;;;;;0.00;0.00;;;22.20;55.10;;;;;;5031459;28;20060;-70
2022/06/15 13:06:29;;;;;;;0.00;0.00;;;22.40;54.00;;;;;;5031552;28;20045;-69
2022/06/15 13:09:22;;;;;;;0.00;0.00;;;22.50;53.60;;;;;;5031678;28;20065;-68
2022/06/15 13:12:02;;;;;;;0.13;0.13;;;22.60;53.30;;;;;;5027166;28;20068;-69
2022/06/15 13:14:33;;;;;;;0.00;0.00;;;22.50;53.20;;;;;;5029671;28;20107;-69
2022/06/15 13:17:10;;;;;;;0.00;0.00;;;22.40;53.70;;;;;;5021281;28;20067;-68
2022/06/15 13:19:49;;;;;;;0.00;0.00;;;22.30;54.00;;;;;;5030701;28;20077;-69
2022/06/15 13:22:28;;;;;;;0.00;0.00;;;22.20;53.50;;;;;;5031488;28;20053;-69
2022/06/15 13:25:04;;;;;;;0.10;0.10;;;22.10;53.60;;;;;;5030546;28;20041;-68
2022/06/15 13:27:32;;;;;;;0.00;0.00;;;22.10;54.60;;;;;;5031899;28;20041;-69
2022/06/15 13:30:22;;;;;;;0.00;0.00;;;22.10;54.10;;;;;;5030475;28;20593;-68
2022/06/15 13:33:01;;;;;;;0.00;0.00;;;22.30;54.30;;;;;;5030181;28;20065;-68
2022/06/15 13:35:44;;;;;;;0.00;0.00;;;22.50;52.30;;;;;;5022480;28;20446;-68